Карточка аэропорта UATT

Внимание!
Информация на этой странице в стадии наполнения.
Если вы не увидели какой-то информации, или заметили неточность - пожалуйста сообщите нам!
Спасибо!
Команда RU-STAFF
Название аэропортаАктобе
Название аэропорта (англ.)Aktobe
Превышение738 ft. (224.9 m.)
Координаты50°14.748', 57°12.402'
Высота перехода10000ft
Эшелон переходаFL120, QNH<733:FL130
Коды ответчика3440-3447, 3540-3547
Зона ОрВДАктобе РПИ (UATT)
Данные METARUATT 160512Z 36005MPS 2900 SHRA SCT007 BKN027CB 17/16 Q1009 TEMPO 1000 RMK QFE736/0982
Проноз погоды (TAF)UATT 152300Z 1600/1624 01005MPS 9999 SCT040CB TX24/1611Z TN18/1600Z TEMPO 1600/1604 3100 -SHRA BKN007 BKN015CB TEMPO 1604/1615 04012MPS 3100 -TSRA BKN011CB
NOTAMshow/hide NOTAM
AWOS   TABLE

Информация о ВПП

ВПП Длина ВПП (м.) Покрытие Курс ВПП Частота ILS
133202Бетон135111.7
313202Бетон315111.7

Диспетчерские позиции




Спутниковое изображение